createdAt,value
2023-05-11T00:01:30.166Z,101367.53
2023-05-11T00:03:59.495Z,101365.91
2023-05-11T00:06:27.436Z,101359.66
2023-05-11T00:08:55.252Z,101358.59
2023-05-11T00:11:23.843Z,101356.13
2023-05-11T00:13:51.749Z,101355.06
2023-05-11T00:16:19.492Z,101356.97
2023-05-11T00:18:47.811Z,101356.13
2023-05-11T00:21:17.110Z,101353.66
2023-05-11T00:23:44.896Z,101359.06
2023-05-11T00:26:12.925Z,101362.59
2023-05-11T00:28:40.741Z,101361.78
2023-05-11T00:31:08.554Z,101359.31
2023-05-11T00:33:36.407Z,101369.06
2023-05-11T00:36:04.769Z,101371.78
2023-05-11T00:38:35.220Z,101370.94
2023-05-11T00:41:03.156Z,101370.13
2023-05-11T00:43:31.069Z,101376.59
2023-05-11T00:45:58.992Z,101371.19
2023-05-11T00:48:26.734Z,101369.53
2023-05-11T00:50:54.972Z,101374.13
2023-05-11T00:53:22.794Z,101364.25
2023-05-11T00:55:52.728Z,101373.28
2023-05-11T00:58:21.318Z,101369.78
2023-05-11T01:00:49.185Z,101375.19
2023-05-11T01:03:18.325Z,101370.00
2023-05-11T01:05:51.452Z,101374.59
2023-05-11T01:08:23.208Z,101372.69
2023-05-11T01:11:00.006Z,101360.34
2023-05-11T01:13:32.779Z,101370.00
2023-05-11T01:16:06.866Z,101361.41
2023-05-11T01:18:39.876Z,101361.41
2023-05-11T01:21:10.908Z,101377.53
2023-05-11T01:23:53.694Z,101378.34
2023-05-11T01:26:36.602Z,101367.53
2023-05-11T01:29:28.099Z,101373.16
2023-05-11T01:31:59.661Z,101374.00
2023-05-11T01:34:31.755Z,101369.16
2023-05-11T01:37:10.418Z,101380.47
2023-05-11T01:39:41.664Z,101372.34
2023-05-11T01:42:11.052Z,101383.16
2023-05-11T01:44:43.484Z,101368.81
2023-05-11T01:47:14.336Z,101374.22
2023-05-11T01:49:45.274Z,101372.56
2023-05-11T01:52:14.716Z,101376.09
2023-05-11T01:54:44.925Z,101379.03
2023-05-11T01:57:14.083Z,101375.28
2023-05-11T01:59:42.287Z,101375.50
2023-05-11T02:02:13.328Z,101377.41
2023-05-11T02:04:42.453Z,101377.41
2023-05-11T02:07:13.105Z,101379.03
2023-05-11T02:09:42.172Z,101366.59
2023-05-11T02:12:12.466Z,101377.41
2023-05-11T02:14:42.428Z,101367.63
2023-05-11T02:17:11.285Z,101370.56
2023-05-11T02:19:43.302Z,101366.22
2023-05-11T02:22:13.635Z,101367.03
2023-05-11T02:24:42.560Z,101356.09
2023-05-11T02:27:11.095Z,101369.75
2023-05-11T02:29:38.882Z,101371.63
2023-05-11T02:32:10.298Z,101367.50
2023-05-11T02:34:43.721Z,101373.75
2023-05-11T02:37:14.725Z,101370.44
2023-05-11T02:39:47.034Z,101344.69
2023-05-11T02:42:19.967Z,101369.41
2023-05-11T02:44:54.949Z,101362.34
2023-05-11T02:47:26.944Z,101366.09
2023-05-11T02:49:58.599Z,101362.56
2023-05-11T02:52:29.329Z,101369.84
2023-05-11T02:54:59.944Z,101365.28
2023-05-11T02:57:28.230Z,101365.50
2023-05-11T02:59:56.976Z,101364.69
2023-05-11T03:02:25.053Z,101371.97
2023-05-11T03:04:53.297Z,101371.16
2023-05-11T03:07:23.429Z,101368.69
2023-05-11T03:09:51.302Z,101374.09
2023-05-11T03:12:19.902Z,101379.50
2023-05-11T03:14:49.406Z,101375.97
2023-05-11T03:17:18.525Z,101379.50
2023-05-11T03:19:47.290Z,101377.84
2023-05-11T03:22:16.337Z,101377.00
2023-05-11T03:24:45.950Z,101384.31
2023-05-11T03:27:14.192Z,101379.94
2023-05-11T03:29:45.369Z,101378.06
2023-05-11T03:32:13.811Z,101385.34
2023-05-11T03:34:41.759Z,101379.13
2023-05-11T03:37:12.514Z,101374.78
2023-05-11T03:39:42.888Z,101374.78
2023-05-11T03:42:15.260Z,101373.13
2023-05-11T03:44:45.076Z,101381.25
2023-05-11T03:47:14.258Z,101372.53
2023-05-11T03:49:43.402Z,101370.75
2023-05-11T03:52:11.446Z,101377.13
2023-05-11T03:54:39.337Z,101380.66
2023-05-11T03:57:07.118Z,101373.59
2023-05-11T03:59:36.319Z,101371.72
2023-05-11T04:02:04.217Z,101371.94
2023-05-11T04:04:32.849Z,101369.47
2023-05-11T04:07:01.035Z,101371.13
2023-05-11T04:09:28.825Z,101373.81
2023-05-11T04:11:56.584Z,101372.19
2023-05-11T04:14:24.544Z,101372.19
2023-05-11T04:16:53.700Z,101374.06
2023-05-11T04:19:21.456Z,101374.06
2023-05-11T04:21:49.349Z,101376.75
2023-05-11T04:24:17.248Z,101383.22
2023-05-11T04:26:45.174Z,101382.41
2023-05-11T04:29:13.013Z,101381.56
2023-05-11T04:31:40.823Z,101380.50
2023-05-11T04:34:10.016Z,101379.94
2023-05-11T04:36:37.815Z,101380.75
2023-05-11T04:39:06.646Z,101382.63
2023-05-11T04:41:35.620Z,101381.81
2023-05-11T04:44:03.418Z,101381.81
2023-05-11T04:46:31.327Z,101387.19
2023-05-11T04:48:59.190Z,101386.38
2023-05-11T04:51:28.476Z,101388.25
2023-05-11T04:53:56.262Z,101394.50
2023-05-11T04:56:24.078Z,101403.41
2023-05-11T04:58:51.921Z,101400.94
2023-05-11T05:01:20.015Z,101402.59
2023-05-11T05:03:49.908Z,101404.47
2023-05-11T05:06:17.884Z,101405.28
2023-05-11T05:08:47.117Z,101412.56
2023-05-11T05:11:14.916Z,101415.50
2023-05-11T05:13:42.745Z,101413.63
2023-05-11T05:16:11.458Z,101418.22
2023-05-11T05:18:39.379Z,101416.34
2023-05-11T05:21:07.351Z,101415.50
2023-05-11T05:23:35.321Z,101423.63
2023-05-11T05:26:04.565Z,101427.16
2023-05-11T05:28:32.365Z,101430.91
2023-05-11T05:31:00.197Z,101422.78
2023-05-11T05:33:28.041Z,101426.31
2023-05-11T05:35:55.943Z,101428.19
2023-05-11T05:38:23.741Z,101436.06
2023-05-11T05:40:51.590Z,101425.50
2023-05-11T05:43:20.853Z,101429.03
2023-05-11T05:45:48.870Z,101432.56
2023-05-11T05:48:16.713Z,101439.84
2023-05-11T05:50:44.542Z,101430.91
2023-05-11T05:53:12.283Z,101439.84
2023-05-11T05:55:40.083Z,101439.84
2023-05-11T05:58:07.921Z,101441.47
2023-05-11T06:00:37.645Z,101442.53
2023-05-11T06:03:05.618Z,101449.59
2023-05-11T06:05:33.516Z,101452.28
2023-05-11T06:08:09.684Z,101452.88
2023-05-11T06:10:38.902Z,101447.25
2023-05-11T06:13:07.103Z,101442.66
2023-05-11T06:15:34.885Z,101440.88
2023-05-11T06:18:04.193Z,101448.91
2023-05-11T06:20:33.316Z,101441.25
2023-05-11T06:23:01.080Z,101457.59
2023-05-11T06:25:28.875Z,101454.91
2023-05-11T06:27:56.636Z,101454.91
2023-05-11T06:30:24.413Z,101454.06
2023-05-11T06:32:52.245Z,101463.84
2023-05-11T06:35:22.494Z,101455.94
2023-05-11T06:37:50.325Z,101464.88
2023-05-11T06:40:18.352Z,101462.19
2023-05-11T06:42:46.317Z,101460.53
2023-05-11T06:45:14.184Z,101467.97
2023-05-11T06:47:42.410Z,101464.78
2023-05-11T06:50:10.982Z,101469.75
2023-05-11T06:52:40.164Z,101468.22
2023-05-11T06:55:09.157Z,101475.50
2023-05-11T06:57:37.025Z,101473.41
2023-05-11T07:00:05.541Z,101475.06
2023-05-11T07:02:33.470Z,101478.34
2023-05-11T07:05:01.621Z,101481.06
2023-05-11T07:07:29.543Z,101482.69
2023-05-11T07:09:58.903Z,101481.06
2023-05-11T07:12:26.772Z,101479.78
2023-05-11T07:14:54.621Z,101478.25
2023-05-11T07:17:22.437Z,101478.84
2023-05-11T07:19:52.256Z,101478.63
2023-05-11T07:22:20.210Z,101475.69
2023-05-11T07:24:48.416Z,101474.38
2023-05-11T07:27:17.719Z,101477.56
2023-05-11T07:29:45.452Z,101481.31
2023-05-11T07:32:13.270Z,101468.13
2023-05-11T07:34:41.703Z,101490.47
2023-05-11T07:37:09.547Z,101491.53
2023-05-11T07:39:37.474Z,101490.72
2023-05-11T07:42:05.531Z,101492.59
2023-05-11T07:44:35.497Z,101492.81
2023-05-11T07:47:03.272Z,101487.41
2023-05-11T07:49:39.888Z,101494.69
2023-05-11T07:52:11.859Z,101499.28
2023-05-11T07:54:40.516Z,101499.28
2023-05-11T07:57:08.445Z,101500.34
2023-05-11T07:59:37.846Z,101503.03
2023-05-11T08:02:07.619Z,101499.28
2023-05-11T08:04:36.185Z,101501.75
2023-05-11T08:07:04.202Z,101500.09
2023-05-11T08:09:32.256Z,101500.84
2023-05-11T08:12:01.653Z,101505.25
2023-05-11T08:14:29.531Z,101501.53
2023-05-11T08:16:58.798Z,101503.69
2023-05-11T08:19:26.790Z,101500.28
2023-05-11T08:21:54.705Z,101509.00
2023-05-11T08:24:22.568Z,101502.63
2023-05-11T08:26:50.386Z,101502.97
2023-05-11T08:29:18.206Z,101506.50
2023-05-11T08:31:46.035Z,101500.00
2023-05-11T08:34:19.669Z,101501.69
2023-05-11T08:36:48.142Z,101502.16
2023-05-11T08:39:24.854Z,101496.16
2023-05-11T08:42:05.322Z,101500.16
2023-05-11T08:44:34.154Z,101502.88
2023-05-11T08:47:20.968Z,101494.28
2023-05-11T08:49:52.323Z,101496.84
2023-05-11T08:52:20.387Z,101498.97
2023-05-11T08:54:48.465Z,101490.25
2023-05-11T08:57:16.679Z,101500.13
2023-05-11T08:59:46.885Z,101508.72
2023-05-11T09:02:18.300Z,101507.53
2023-05-11T09:04:48.905Z,101511.75
2023-05-11T09:07:19.421Z,101511.41
2023-05-11T09:09:47.543Z,101513.50
2023-05-11T09:12:15.513Z,101515.63
2023-05-11T09:14:43.730Z,101521.25
2023-05-11T09:17:11.959Z,101525.22
2023-05-11T09:19:57.816Z,101517.97
2023-05-11T09:22:30.209Z,101519.59
2023-05-11T09:24:59.839Z,101518.16
2023-05-11T09:27:27.621Z,101526.28
2023-05-11T09:29:55.976Z,101507.31
2023-05-11T09:32:23.868Z,101521.91
2023-05-11T09:34:51.934Z,101513.56
2023-05-11T09:37:20.384Z,101519.59
2023-05-11T09:40:25.156Z,101522.91
2023-05-11T09:42:44.974Z,101516.22
2023-05-11T09:45:12.745Z,101518.69
2023-05-11T09:47:41.564Z,101518.22
2023-05-11T09:50:18.732Z,101522.81
2023-05-11T09:52:53.586Z,101524.47
2023-05-11T09:55:22.755Z,101514.47
2023-05-11T09:57:55.806Z,101525.28
2023-05-11T10:00:25.158Z,101519.03
2023-05-11T10:03:03.807Z,101527.97
2023-05-11T10:05:32.867Z,101529.28
2023-05-11T10:08:01.924Z,101521.97
2023-05-11T10:10:32.567Z,101523.84
2023-05-11T10:13:02.278Z,101517.63
2023-05-11T10:15:33.376Z,101519.50
2023-05-11T10:18:02.786Z,101529.03
2023-05-11T10:20:30.610Z,101526.34
2023-05-11T10:22:58.430Z,101529.03
2023-05-11T10:25:27.624Z,101521.03
2023-05-11T10:27:58.284Z,101526.69
2023-05-11T10:30:26.527Z,101527.53
2023-05-11T10:32:56.499Z,101523.75
2023-05-11T10:35:24.746Z,101520.81
2023-05-11T10:37:52.642Z,101524.34
2023-05-11T10:40:21.156Z,101524.34
2023-05-11T10:43:14.538Z,101522.25
2023-05-11T10:45:52.165Z,101524.94
2023-05-11T10:49:01.975Z,101517.41
2023-05-11T10:51:46.989Z,101500.47
2023-05-11T10:54:27.563Z,101509.06
2023-05-11T10:57:10.063Z,101509.66
2023-05-11T11:00:10.672Z,101505.91
2023-05-11T11:02:38.927Z,101504.84
2023-05-11T11:05:10.877Z,101501.31
2023-05-11T11:07:58.700Z,101510.50
2023-05-11T11:10:35.032Z,101502.59
2023-05-11T11:13:04.454Z,101501.78
2023-05-11T11:16:11.263Z,101506.72
2023-05-11T11:18:40.495Z,101500.25
2023-05-11T11:21:08.976Z,101494.63
2023-05-11T11:23:44.344Z,101496.25
2023-05-11T11:26:15.380Z,101488.03
2023-05-11T11:29:14.397Z,101498.28
2023-05-11T11:31:43.721Z,101489.78
2023-05-11T11:34:33.893Z,101499.69
2023-05-11T11:37:05.962Z,101496.50
2023-05-11T11:39:58.379Z,101495.44
2023-05-11T11:42:42.690Z,101489.81
2023-05-11T11:45:32.487Z,101483.34
2023-05-11T11:48:15.902Z,101487.69
2023-05-11T11:50:46.085Z,101474.97
2023-05-11T11:53:35.988Z,101475.56
2023-05-11T11:56:04.117Z,101474.75
2023-05-11T11:59:04.122Z,101481.81
2023-05-11T12:01:37.589Z,101487.00
2023-05-11T12:04:49.962Z,101493.00
2023-05-11T12:07:21.487Z,101483.81
2023-05-11T12:09:50.078Z,101480.88
2023-05-11T12:12:21.820Z,101485.22
2023-05-11T12:14:50.014Z,101483.34
2023-05-11T12:17:25.565Z,101485.81
2023-05-11T12:19:53.517Z,101487.47
2023-05-11T12:22:26.927Z,101473.69
2023-05-11T12:25:00.139Z,101485.09
2023-05-11T12:27:28.437Z,101476.75
2023-05-11T12:29:57.350Z,101470.28
2023-05-11T12:32:29.320Z,101472.75
2023-05-11T12:35:02.222Z,101467.34
2023-05-11T12:37:31.994Z,101466.28
2023-05-11T12:40:00.797Z,101469.56
2023-05-11T12:42:28.876Z,101472.03
2023-05-11T12:44:57.316Z,101469.09
2023-05-11T12:47:25.448Z,101468.84
2023-05-11T12:49:53.452Z,101465.91
2023-05-11T12:52:24.566Z,101462.97
2023-05-11T12:54:55.090Z,101461.09
2023-05-11T12:57:27.503Z,101460.03
2023-05-11T13:00:10.075Z,101442.03
2023-05-11T13:02:45.681Z,101451.19
2023-05-11T13:05:15.064Z,101452.00
2023-05-11T13:07:44.107Z,101446.59
2023-05-11T13:10:14.066Z,101443.88
2023-05-11T13:12:52.346Z,101445.53
2023-05-11T13:15:21.922Z,101444.47
2023-05-11T13:17:56.716Z,101439.06
2023-05-11T13:20:27.437Z,101439.88
2023-05-11T13:23:05.409Z,101439.66
2023-05-11T13:25:35.437Z,101434.81
2023-05-11T13:28:04.141Z,101440.00
2023-05-11T13:30:34.655Z,101437.03
2023-05-11T13:33:03.000Z,101430.31
2023-05-11T13:35:30.861Z,101429.25
2023-05-11T13:37:59.758Z,101435.25
2023-05-11T13:40:27.550Z,101430.44
2023-05-11T13:42:57.196Z,101432.66
2023-05-11T13:45:25.070Z,101434.06
2023-05-11T13:47:53.160Z,101419.47
2023-05-11T13:50:21.069Z,101426.28
2023-05-11T13:52:49.242Z,101416.84
2023-05-11T13:55:17.371Z,101413.66
2023-05-11T13:57:45.658Z,101421.34
2023-05-11T14:00:16.295Z,101417.56
2023-05-11T14:02:45.202Z,101410.22
2023-05-11T14:05:13.204Z,101412.69
2023-05-11T14:07:47.129Z,101407.03
2023-05-11T14:10:16.594Z,101407.63
2023-05-11T14:12:44.350Z,101411.72
2023-05-11T14:15:12.469Z,101411.50
2023-05-11T14:17:43.118Z,101410.19
2023-05-11T14:20:12.554Z,101409.94
2023-05-11T14:22:41.111Z,101410.53
2023-05-11T14:25:09.805Z,101411.09
2023-05-11T14:27:37.764Z,101401.91
2023-05-11T14:30:06.620Z,101398.13
2023-05-11T14:32:34.500Z,101392.22
2023-05-11T14:35:03.745Z,101394.69
2023-05-11T14:37:31.575Z,101404.22
2023-05-11T14:39:59.858Z,101397.75
2023-05-11T14:42:29.474Z,101394.78
2023-05-11T14:44:57.326Z,101401.84
2023-05-11T14:47:25.458Z,101403.50
2023-05-11T14:49:53.427Z,101402.44
2023-05-11T14:52:22.581Z,101399.47
2023-05-11T14:54:51.020Z,101403.00
2023-05-11T14:57:18.843Z,101405.13
2023-05-11T14:59:58.261Z,101396.44
2023-05-11T15:02:27.523Z,101398.91
2023-05-11T15:04:55.581Z,101393.47
2023-05-11T15:07:24.820Z,101392.97
2023-05-11T15:09:52.859Z,101398.41
2023-05-11T15:12:20.638Z,101394.88
2023-05-11T15:14:48.809Z,101400.06
2023-05-11T15:17:16.702Z,101397.34
2023-05-11T15:19:44.796Z,101403.84
2023-05-11T15:22:12.709Z,101398.41
2023-05-11T15:24:41.919Z,101400.28
2023-05-11T15:27:10.211Z,101383.59
2023-05-11T15:29:38.038Z,101397.34
2023-05-11T15:32:06.935Z,101400.28
2023-05-11T15:34:39.478Z,101405.47
2023-05-11T15:37:12.354Z,101405.72
2023-05-11T15:39:41.593Z,101404.06
2023-05-11T15:42:09.843Z,101404.66
2023-05-11T15:44:37.654Z,101411.13
2023-05-11T15:47:06.168Z,101410.91
2023-05-11T15:49:34.025Z,101409.00
2023-05-11T15:52:02.007Z,101408.75
2023-05-11T15:54:29.930Z,101407.94
2023-05-11T15:56:59.076Z,101413.13
2023-05-11T15:59:27.112Z,101412.28
2023-05-11T16:01:54.960Z,101413.94
2023-05-11T16:04:22.855Z,101412.88
2023-05-11T16:06:50.661Z,101416.41
2023-05-11T16:09:18.515Z,101410.16
2023-05-11T16:11:46.318Z,101413.69
2023-05-11T16:14:15.598Z,101415.59
2023-05-11T16:16:44.012Z,101416.41
2023-05-11T16:19:11.911Z,101412.06
2023-05-11T16:21:39.810Z,101411.22
2023-05-11T16:24:11.407Z,101399.72
2023-05-11T16:26:39.305Z,101419.13
2023-05-11T16:29:07.154Z,101420.19
2023-05-11T16:31:36.337Z,101420.19
2023-05-11T16:34:04.305Z,101421.84
2023-05-11T16:36:32.150Z,101415.59
2023-05-11T16:38:59.992Z,101424.78
2023-05-11T16:41:28.727Z,101415.59
2023-05-11T16:43:56.674Z,101423.72
2023-05-11T16:46:24.551Z,101415.59
2023-05-11T16:48:53.826Z,101426.44
2023-05-11T16:51:21.790Z,101422.06
2023-05-11T16:53:49.660Z,101424.22
2023-05-11T16:56:17.521Z,101416.06
2023-05-11T16:58:45.513Z,101423.63
2023-05-11T17:01:14.403Z,101421.97
2023-05-11T17:03:42.572Z,101422.22
2023-05-11T17:06:14.546Z,101419.50
2023-05-11T17:08:42.296Z,101421.41
2023-05-11T17:11:10.164Z,101427.66
2023-05-11T17:13:38.139Z,101427.66
2023-05-11T17:16:06.320Z,101424.94
2023-05-11T17:18:34.490Z,101432.25
2023-05-11T17:21:02.287Z,101427.66
2023-05-11T17:23:31.562Z,101432.50
2023-05-11T17:26:00.042Z,101431.66
2023-05-11T17:28:27.882Z,101431.66
2023-05-11T17:30:55.714Z,101434.38
2023-05-11T17:33:23.845Z,101436.28
2023-05-11T17:35:51.753Z,101435.44
2023-05-11T17:38:19.704Z,101440.88
2023-05-11T17:40:48.944Z,101437.34
2023-05-11T17:43:17.178Z,101435.69
2023-05-11T17:45:44.986Z,101441.09
2023-05-11T17:48:13.913Z,101443.25
2023-05-11T17:50:41.711Z,101438.88
2023-05-11T17:53:09.596Z,101441.59
2023-05-11T17:55:39.430Z,101444.06
2023-05-11T17:58:08.631Z,101441.00
2023-05-11T18:00:36.821Z,101444.78
2023-05-11T18:03:05.960Z,101443.13
2023-05-11T18:05:47.506Z,101448.56
2023-05-11T18:08:16.165Z,101441.50
2023-05-11T18:10:44.197Z,101446.91
2023-05-11T18:13:14.249Z,101449.63
2023-05-11T18:15:43.981Z,101450.69
2023-05-11T18:18:11.995Z,101460.72
2023-05-11T18:20:40.141Z,101456.34
2023-05-11T18:23:08.124Z,101452.81
2023-05-11T18:25:36.058Z,101463.66
2023-05-11T18:28:04.385Z,101460.13
2023-05-11T18:30:34.821Z,101459.31
2023-05-11T18:33:02.854Z,101458.47
2023-05-11T18:35:31.677Z,101460.38
2023-05-11T18:38:02.210Z,101462.25
2023-05-11T18:40:30.034Z,101473.34
2023-05-11T18:42:57.852Z,101470.03
2023-05-11T18:45:28.496Z,101466.50
2023-05-11T18:47:57.816Z,101473.00
2023-05-11T18:50:27.011Z,101465.69
2023-05-11T18:52:54.962Z,101472.16
2023-05-11T18:55:22.950Z,101475.13
2023-05-11T18:57:50.888Z,101479.72
2023-05-11T19:00:19.594Z,101479.97
2023-05-11T19:02:48.157Z,101480.19
2023-05-11T19:05:17.532Z,101478.31
2023-05-11T19:07:45.303Z,101476.66
2023-05-11T19:10:13.515Z,101476.91
2023-05-11T19:12:41.303Z,101487.75
2023-05-11T19:15:10.422Z,101488.00
2023-05-11T19:17:38.300Z,101487.19
2023-05-11T19:20:08.237Z,101490.13
2023-05-11T19:22:37.587Z,101493.91
2023-05-11T19:25:06.430Z,101487.88
2023-05-11T19:27:34.244Z,101496.81
2023-05-11T19:30:02.011Z,101498.72
2023-05-11T19:32:29.828Z,101502.47
2023-05-11T19:34:57.616Z,101505.19
2023-05-11T19:37:25.452Z,101517.09
2023-05-11T19:39:59.527Z,101507.31
2023-05-11T19:42:39.969Z,101516.50
2023-05-11T19:45:11.374Z,101520.28
2023-05-11T19:47:39.966Z,101523.22
2023-05-11T19:50:08.872Z,101519.69
2023-05-11T19:52:37.696Z,101531.34
2023-05-11T19:55:08.096Z,101522.41
2023-05-11T19:57:37.469Z,101522.63
2023-05-11T20:00:06.629Z,101519.09
2023-05-11T20:02:35.553Z,101533.47
2023-05-11T20:05:04.297Z,101523.69
2023-05-11T20:07:32.250Z,101527.47
2023-05-11T20:10:00.132Z,101531.25
2023-05-11T20:12:29.297Z,101529.59
2023-05-11T20:14:57.296Z,101532.31
2023-05-11T20:17:25.524Z,101527.13
2023-05-11T20:19:53.429Z,101521.81
2023-05-11T20:22:22.612Z,101535.47
2023-05-11T20:24:50.491Z,101541.72
2023-05-11T20:27:18.450Z,101540.06
2023-05-11T20:29:47.663Z,101539.00
2023-05-11T20:32:15.478Z,101547.13
2023-05-11T20:34:43.328Z,101545.50
2023-05-11T20:37:11.086Z,101541.97
2023-05-11T20:39:40.219Z,101535.00
2023-05-11T20:42:08.764Z,101542.19
2023-05-11T20:44:36.513Z,101545.72
2023-05-11T20:47:06.389Z,101543.25
2023-05-11T20:49:38.691Z,101544.91
2023-05-11T20:52:07.765Z,101548.66
2023-05-11T20:54:35.914Z,101545.13
2023-05-11T20:57:04.708Z,101548.09
2023-05-11T21:02:05.990Z,101550.78
2023-05-11T21:04:34.065Z,101542.66
2023-05-11T21:07:01.900Z,101542.66
2023-05-11T21:09:29.655Z,101544.56
2023-05-11T21:11:57.512Z,101548.31
2023-05-11T21:14:25.247Z,101539.38
2023-05-11T21:16:53.027Z,101538.53
2023-05-11T21:19:22.300Z,101541.25
2023-05-11T21:21:50.183Z,101545.03
2023-05-11T21:24:20.258Z,101554.22
2023-05-11T21:26:48.346Z,101539.25
2023-05-11T21:29:16.215Z,101545.25
2023-05-11T21:31:43.969Z,101549.84
2023-05-11T21:34:11.937Z,101554.44
2023-05-11T21:36:41.560Z,101560.69
2023-05-11T21:39:09.314Z,101557.16
2023-05-11T21:41:37.246Z,101551.97
2023-05-11T21:44:05.953Z,101548.19
2023-05-11T21:46:33.823Z,101550.91
2023-05-11T21:49:01.625Z,101548.44
2023-05-11T21:51:29.383Z,101551.97
2023-05-11T21:53:58.576Z,101557.38
2023-05-11T21:56:26.567Z,101560.09
2023-05-11T21:58:54.331Z,101555.50
2023-05-11T22:01:22.585Z,101554.69
2023-05-11T22:03:50.525Z,101559.28
2023-05-11T22:06:18.594Z,101560.09
2023-05-11T22:08:46.556Z,101559.50
2023-05-11T22:11:15.732Z,101563.03
2023-05-11T22:13:44.614Z,101557.63
2023-05-11T22:16:12.443Z,101561.38
2023-05-11T22:18:40.376Z,101551.63
2023-05-11T22:21:08.138Z,101557.84
2023-05-11T22:23:36.596Z,101557.03
2023-05-11T22:26:04.580Z,101550.78
2023-05-11T22:28:34.096Z,101543.72
2023-05-11T22:31:02.436Z,101546.44
2023-05-11T22:33:30.191Z,101542.31
2023-05-11T22:35:57.980Z,101548.31
2023-05-11T22:38:25.863Z,101541.25
2023-05-11T22:40:53.676Z,101545.03
2023-05-11T22:43:21.471Z,101548.56
2023-05-11T22:45:50.670Z,101550.44
2023-05-11T22:48:18.674Z,101546.31
2023-05-11T22:50:47.591Z,101548.44
2023-05-11T22:53:15.811Z,101549.25
2023-05-11T22:55:43.581Z,101550.31
2023-05-11T22:58:11.447Z,101561.97
2023-05-11T23:00:39.327Z,101564.91
2023-05-11T23:03:08.794Z,101556.78
2023-05-11T23:05:37.214Z,101541.50
2023-05-11T23:08:05.008Z,101550.78
2023-05-11T23:10:33.431Z,101551.63
2023-05-11T23:13:01.244Z,101552.66
2023-05-11T23:15:28.969Z,101545.59
2023-05-11T23:17:56.912Z,101544.78
2023-05-11T23:20:26.198Z,101548.56
2023-05-11T23:22:54.016Z,101541.25
2023-05-11T23:25:21.790Z,101544.19
2023-05-11T23:27:49.576Z,101538.78
2023-05-11T23:30:17.963Z,101540.66
2023-05-11T23:32:46.086Z,101537.94
2023-05-11T23:35:14.237Z,101537.94
2023-05-11T23:37:43.443Z,101546.06
2023-05-11T23:40:11.826Z,101532.53
2023-05-11T23:42:39.773Z,101537.13
2023-05-11T23:45:08.772Z,101537.13
2023-05-11T23:47:37.311Z,101532.78
2023-05-11T23:50:05.819Z,101533.59
2023-05-11T23:52:33.626Z,101519.25
2023-05-11T23:55:02.905Z,101521.13
2023-05-11T23:57:30.697Z,101520.31
2023-05-11T23:59:58.768Z,101517.81
